Weather at Glenswinton Farm Airstrip

Public forecast

Using degrees Celsius for public forecast. Weather courtesy of forecast.io.

Closest aviation weather report (METAR) to Glenswinton Farm Airstrip

Report is more than 6 hours old.

Closest report is Glasgow Prestwick Airport, 33.2 nm (61.6 km) NW.

2022/11/14 15:20 (retrieved 2 years ago)

EGPK 141520Z 13010KT 9000 -RA BKN020 13/11 Q1002

Closest aviation forecast (TAF) to Glenswinton Farm Airstrip

Forecast is more than 12 hours old.

Closest forecast is Glasgow Prestwick Airport, 33.2 nm (61.6 km) NW.

2023/02/22 18:00 (retrieved 1 year ago)

TAF EGPK 221653Z 2218/2318 33010KT 9999 SCT040 BECMG 2301/2304 15004KT BECMG 2310/2313 27012KT